<?xml version='1.0' encoding='UTF-8'?><gpx version="1.1" creator="JPX - https://github.com/jenetics/jpx" xmlns="http://www.topografix.com/GPX/1/1"><trk><trkseg><trkpt lat="36.9624239" lon="15.0373641"><ele>413.0</ele><time>2026-03-28T09:53:55.501Z</time></trkpt><trkpt lat="36.9624971" lon="15.0374518"><ele>413.0</ele><time>2026-03-28T09:53:57.501Z</time></trkpt><trkpt lat="36.9625784" lon="15.0375849"><ele>413.0</ele><time>2026-03-28T09:53:59.501Z</time></trkpt><trkpt lat="36.9626095" lon="15.0376869"><ele>413.0</ele><time>2026-03-28T09:54:00.5Z</time></trkpt><trkpt lat="36.9626332" lon="15.0377963"><ele>413.0</ele><time>2026-03-28T09:54:01.5Z</time></trkpt><trkpt lat="36.9626628" lon="15.037892"><ele>412.4</ele><time>2026-03-28T09:54:02.501Z</time></trkpt><trkpt lat="36.962704" lon="15.0379953"><ele>411.79999999999995</ele><time>2026-03-28T09:54:03.501Z</time></trkpt><trkpt lat="36.9627588" lon="15.0380973"><ele>411.2</ele><time>2026-03-28T09:54:04.5Z</time></trkpt><trkpt lat="36.9628332" lon="15.0381855"><ele>410.6</ele><time>2026-03-28T09:54:05.5Z</time></trkpt><trkpt lat="36.9629273" lon="15.0382743"><ele>410.0</ele><time>2026-03-28T09:54:06.501Z</time></trkpt><trkpt lat="36.9630274" lon="15.0383695"><ele>410.0</ele><time>2026-03-28T09:54:07.5Z</time></trkpt><trkpt lat="36.9631171" lon="15.0384631"><ele>410.0</ele><time>2026-03-28T09:54:08.5Z</time></trkpt><trkpt lat="36.963199" lon="15.0385603"><ele>410.0</ele><time>2026-03-28T09:54:09.5Z</time></trkpt><trkpt lat="36.9632683" lon="15.0386614"><ele>410.0</ele><time>2026-03-28T09:54:10.501Z</time></trkpt><trkpt lat="36.9633212" lon="15.0387668"><ele>410.0</ele><time>2026-03-28T09:54:11.5Z</time></trkpt><trkpt lat="36.9633479" lon="15.0388872"><ele>410.0</ele><time>2026-03-28T09:54:12.5Z</time></trkpt><trkpt lat="36.9633601" lon="15.039039"><ele>410.0</ele><time>2026-03-28T09:54:13.5Z</time></trkpt><trkpt lat="36.9633674" lon="15.0392148"><ele>410.0</ele><time>2026-03-28T09:54:14.501Z</time></trkpt><trkpt lat="36.9633807" lon="15.039392"><ele>410.0</ele><time>2026-03-28T09:54:15.5Z</time></trkpt><trkpt lat="36.9633925" lon="15.0395584"><ele>410.0</ele><time>2026-03-28T09:54:16.501Z</time></trkpt><trkpt lat="36.9634144" lon="15.0397108"><ele>410.0</ele><time>2026-03-28T09:54:17.5Z</time></trkpt><trkpt lat="36.9634421" lon="15.0398658"><ele>410.0</ele><time>2026-03-28T09:54:18.5Z</time></trkpt><trkpt lat="36.9634591" lon="15.0400374"><ele>410.0</ele><time>2026-03-28T09:54:19.499Z</time></trkpt><trkpt lat="36.9634684" lon="15.0402015"><ele>409.25</ele><time>2026-03-28T09:54:20.5Z</time></trkpt><trkpt lat="36.9634813" lon="15.0403561"><ele>408.5</ele><time>2026-03-28T09:54:21.5Z</time></trkpt><trkpt lat="36.9634935" lon="15.0405043"><ele>407.75</ele><time>2026-03-28T09:54:22.501Z</time></trkpt><trkpt lat="36.9635032" lon="15.0406432"><ele>407.0</ele><time>2026-03-28T09:54:23.499Z</time></trkpt><trkpt lat="36.9635097" lon="15.0407728"><ele>406.16666666666663</ele><time>2026-03-28T09:54:24.5Z</time></trkpt><trkpt lat="36.9635159" lon="15.0408937"><ele>405.3333333333333</ele><time>2026-03-28T09:54:25.501Z</time></trkpt><trkpt lat="36.9635203" lon="15.0410054"><ele>404.5</ele><time>2026-03-28T09:54:26.5Z</time></trkpt><trkpt lat="36.9635261" lon="15.0411121"><ele>403.66666666666663</ele><time>2026-03-28T09:54:27.5Z</time></trkpt><trkpt lat="36.9635343" lon="15.0412142"><ele>402.8333333333333</ele><time>2026-03-28T09:54:28.5Z</time></trkpt><trkpt lat="36.9635479" lon="15.0413116"><ele>402.0</ele><time>2026-03-28T09:54:29.5Z</time></trkpt><trkpt lat="36.9635635" lon="15.0414065"><ele>402.0</ele><time>2026-03-28T09:54:30.501Z</time></trkpt><trkpt lat="36.9635794" lon="15.0415036"><ele>402.0</ele><time>2026-03-28T09:54:31.501Z</time></trkpt><trkpt lat="36.9635915" lon="15.0415972"><ele>402.0</ele><time>2026-03-28T09:54:32.499Z</time></trkpt><trkpt lat="36.9636025" lon="15.0416861"><ele>402.0</ele><time>2026-03-28T09:54:33.5Z</time></trkpt><trkpt lat="36.9636171" lon="15.0417741"><ele>402.0</ele><time>2026-03-28T09:54:34.501Z</time></trkpt><trkpt lat="36.9636284" lon="15.0418717"><ele>402.0</ele><time>2026-03-28T09:54:35.5Z</time></trkpt><trkpt lat="36.9636396" lon="15.0419748"><ele>401.0</ele><time>2026-03-28T09:54:36.499Z</time></trkpt><trkpt lat="36.9636531" lon="15.0420753"><ele>400.0</ele><time>2026-03-28T09:54:37.501Z</time></trkpt><trkpt lat="36.9636638" lon="15.0421845"><ele>399.0</ele><time>2026-03-28T09:54:38.501Z</time></trkpt><trkpt lat="36.9636796" lon="15.0422984"><ele>398.0</ele><time>2026-03-28T09:54:39.501Z</time></trkpt><trkpt lat="36.9636936" lon="15.0424099"><ele>397.0</ele><time>2026-03-28T09:54:40.5Z</time></trkpt><trkpt lat="36.9637116" lon="15.0425229"><ele>396.0</ele><time>2026-03-28T09:54:41.501Z</time></trkpt><trkpt lat="36.9637192" lon="15.0426339"><ele>395.0</ele><time>2026-03-28T09:54:42.5Z</time></trkpt><trkpt lat="36.9637206" lon="15.042753"><ele>394.0</ele><time>2026-03-28T09:54:43.499Z</time></trkpt><trkpt lat="36.9637166" lon="15.0428791"><ele>393.0</ele><time>2026-03-28T09:54:44.501Z</time></trkpt><trkpt lat="36.9637193" lon="15.0429906"><ele>392.0</ele><time>2026-03-28T09:54:45.5Z</time></trkpt><trkpt lat="36.9637289" lon="15.0430975"><ele>391.0</ele><time>2026-03-28T09:54:46.5Z</time></trkpt><trkpt lat="36.96374" lon="15.0432128"><ele>391.1666666666667</ele><time>2026-03-28T09:54:47.501Z</time></trkpt><trkpt lat="36.9637571" lon="15.0433263"><ele>391.33333333333337</ele><time>2026-03-28T09:54:48.5Z</time></trkpt><trkpt lat="36.9637787" lon="15.0434222"><ele>391.5</ele><time>2026-03-28T09:54:49.501Z</time></trkpt><trkpt lat="36.9638076" lon="15.0435155"><ele>391.66666666666663</ele><time>2026-03-28T09:54:50.501Z</time></trkpt><trkpt lat="36.96385" lon="15.0435985"><ele>391.8333333333333</ele><time>2026-03-28T09:54:51.5Z</time></trkpt><trkpt lat="36.9638949" lon="15.0436698"><ele>392.0</ele><time>2026-03-28T09:54:52.5Z</time></trkpt><trkpt lat="36.9639862" lon="15.0437664"><ele>391.99999999999994</ele><time>2026-03-28T09:54:54.501Z</time></trkpt><trkpt lat="36.9640823" lon="15.0438571"><ele>392.0</ele><time>2026-03-28T09:54:56.5Z</time></trkpt><trkpt lat="36.9641291" lon="15.0439167"><ele>392.0</ele><time>2026-03-28T09:54:57.5Z</time></trkpt><trkpt lat="36.964175" lon="15.0440007"><ele>392.0</ele><time>2026-03-28T09:54:58.499Z</time></trkpt><trkpt lat="36.9642238" lon="15.0440934"><ele>391.99999999999994</ele><time>2026-03-28T09:54:59.501Z</time></trkpt><trkpt lat="36.964288" lon="15.0441752"><ele>392.0</ele><time>2026-03-28T09:55:00.5Z</time></trkpt><trkpt lat="36.9643568" lon="15.0442498"><ele>392.99999999999994</ele><time>2026-03-28T09:55:01.5Z</time></trkpt><trkpt lat="36.9644183" lon="15.0443227"><ele>394.0</ele><time>2026-03-28T09:55:02.501Z</time></trkpt><trkpt lat="36.9644756" lon="15.0444059"><ele>395.0</ele><time>2026-03-28T09:55:03.5Z</time></trkpt><trkpt lat="36.9645262" lon="15.0444988"><ele>396.0</ele><time>2026-03-28T09:55:04.5Z</time></trkpt><trkpt lat="36.9645759" lon="15.04459"><ele>396.99999999999994</ele><time>2026-03-28T09:55:05.501Z</time></trkpt><trkpt lat="36.964622" lon="15.0446781"><ele>398.0</ele><time>2026-03-28T09:55:06.499Z</time></trkpt><trkpt lat="36.9646675" lon="15.0447635"><ele>397.99999999999994</ele><time>2026-03-28T09:55:07.5Z</time></trkpt><trkpt lat="36.9647092" lon="15.0448542"><ele>398.0</ele><time>2026-03-28T09:55:08.5Z</time></trkpt><trkpt lat="36.9647522" lon="15.0449444"><ele>398.0</ele><time>2026-03-28T09:55:09.5Z</time></trkpt><trkpt lat="36.9647886" lon="15.0450319"><ele>398.0</ele><time>2026-03-28T09:55:10.499Z</time></trkpt><trkpt lat="36.9648157" lon="15.0451214"><ele>397.99999999999994</ele><time>2026-03-28T09:55:11.499Z</time></trkpt><trkpt lat="36.964841" lon="15.0452224"><ele>398.0</ele><time>2026-03-28T09:55:12.5Z</time></trkpt><trkpt lat="36.9648665" lon="15.045324"><ele>398.66666666666663</ele><time>2026-03-28T09:55:13.499Z</time></trkpt><trkpt lat="36.9648969" lon="15.0454196"><ele>399.3333333333333</ele><time>2026-03-28T09:55:14.501Z</time></trkpt><trkpt lat="36.9649328" lon="15.0455151"><ele>400.0</ele><time>2026-03-28T09:55:15.5Z</time></trkpt><trkpt lat="36.9649711" lon="15.0455992"><ele>400.66666666666663</ele><time>2026-03-28T09:55:16.501Z</time></trkpt><trkpt lat="36.9650163" lon="15.0456739"><ele>401.3333333333333</ele><time>2026-03-28T09:55:17.499Z</time></trkpt><trkpt lat="36.965059" lon="15.0457645"><ele>402.0</ele><time>2026-03-28T09:55:18.5Z</time></trkpt><trkpt lat="36.965097" lon="15.0458731"><ele>403.0</ele><time>2026-03-28T09:55:19.499Z</time></trkpt><trkpt lat="36.9651266" lon="15.0459845"><ele>404.0</ele><time>2026-03-28T09:55:20.5Z</time></trkpt><trkpt lat="36.9651536" lon="15.0460774"><ele>405.0</ele><time>2026-03-28T09:55:21.501Z</time></trkpt><trkpt lat="36.965182" lon="15.0461572"><ele>406.0</ele><time>2026-03-28T09:55:22.501Z</time></trkpt><trkpt lat="36.9652275" lon="15.0462889"><ele>407.0</ele><time>2026-03-28T09:55:24.501Z</time></trkpt><trkpt lat="36.9652934" lon="15.0463856"><ele>407.0</ele><time>2026-03-28T09:55:26.5Z</time></trkpt><trkpt lat="36.9653967" lon="15.0464694"><ele>407.0</ele><time>2026-03-28T09:55:28.5Z</time></trkpt><trkpt lat="36.9655093" lon="15.0465339"><ele>407.0</ele><time>2026-03-28T09:55:30.5Z</time></trkpt><trkpt lat="36.9656196" lon="15.0465909"><ele>407.0</ele><time>2026-03-28T09:55:32.501Z</time></trkpt><trkpt lat="36.9657315" lon="15.0466198"><ele>406.49999999999994</ele><time>2026-03-28T09:55:34.5Z</time></trkpt><trkpt lat="36.9658086" lon="15.0466521"><ele>406.0</ele><time>2026-03-28T09:55:36.501Z</time></trkpt><trkpt lat="36.9658531" lon="15.0467176"><ele>405.5</ele><time>2026-03-28T09:55:48.5Z</time></trkpt><trkpt lat="36.9658669" lon="15.0468143"><ele>405.0</ele><time>2026-03-28T09:55:55.5Z</time></trkpt><trkpt lat="36.9658799" lon="15.0468997"><ele>404.49999999999994</ele><time>2026-03-28T09:55:57.499Z</time></trkpt><trkpt lat="36.9659127" lon="15.0469998"><ele>404.0</ele><time>2026-03-28T09:55:59.499Z</time></trkpt><trkpt lat="36.9659774" lon="15.0471127"><ele>405.2</ele><time>2026-03-28T09:56:01.499Z</time></trkpt><trkpt lat="36.966023" lon="15.0472478"><ele>406.4</ele><time>2026-03-28T09:56:03.499Z</time></trkpt><trkpt lat="36.9660316" lon="15.0473305"><ele>407.6</ele><time>2026-03-28T09:56:04.501Z</time></trkpt><trkpt lat="36.9660278" lon="15.0474159"><ele>408.8</ele><time>2026-03-28T09:56:05.5Z</time></trkpt><trkpt lat="36.9660083" lon="15.0475713"><ele>410.0</ele><time>2026-03-28T09:56:07.5Z</time></trkpt><trkpt lat="36.9659982" lon="15.0476664"><ele>410.42857142857144</ele><time>2026-03-28T09:56:08.5Z</time></trkpt><trkpt lat="36.9659901" lon="15.0477543"><ele>410.85714285714283</ele><time>2026-03-28T09:56:09.5Z</time></trkpt><trkpt lat="36.9659865" lon="15.0478403"><ele>411.2857142857143</ele><time>2026-03-28T09:56:10.5Z</time></trkpt><trkpt lat="36.965992" lon="15.0479336"><ele>411.7142857142857</ele><time>2026-03-28T09:56:11.501Z</time></trkpt><trkpt lat="36.9660014" lon="15.0480308"><ele>412.1428571428571</ele><time>2026-03-28T09:56:12.501Z</time></trkpt><trkpt lat="36.9660107" lon="15.048123"><ele>412.57142857142856</ele><time>2026-03-28T09:56:13.5Z</time></trkpt><trkpt lat="36.9660226" lon="15.04821"><ele>413.0</ele><time>2026-03-28T09:56:14.501Z</time></trkpt><trkpt lat="36.9660403" lon="15.0482973"><ele>413.2857142857143</ele><time>2026-03-28T09:56:15.499Z</time></trkpt><trkpt lat="36.9660556" lon="15.0483751"><ele>413.57142857142856</ele><time>2026-03-28T09:56:16.5Z</time></trkpt><trkpt lat="36.9660669" lon="15.0484561"><ele>413.8571428571429</ele><time>2026-03-28T09:56:17.5Z</time></trkpt><trkpt lat="36.9660664" lon="15.0485357"><ele>414.1428571428571</ele><time>2026-03-28T09:56:18.5Z</time></trkpt><trkpt lat="36.9660661" lon="15.0486184"><ele>414.42857142857144</ele><time>2026-03-28T09:56:19.5Z</time></trkpt><trkpt lat="36.9660618" lon="15.0486999"><ele>414.7142857142857</ele><time>2026-03-28T09:56:20.5Z</time></trkpt><trkpt lat="36.9660399" lon="15.0487835"><ele>415.0</ele><time>2026-03-28T09:56:21.5Z</time></trkpt><trkpt lat="36.966026" lon="15.0488699"><ele>415.0</ele><time>2026-03-28T09:56:22.501Z</time></trkpt><trkpt lat="36.9660278" lon="15.048969"><ele>415.0</ele><time>2026-03-28T09:56:23.5Z</time></trkpt><trkpt lat="36.9660384" lon="15.0490913"><ele>415.0</ele><time>2026-03-28T09:56:24.501Z</time></trkpt><trkpt lat="36.9660372" lon="15.0492271"><ele>415.0</ele><time>2026-03-28T09:56:25.5Z</time></trkpt><trkpt lat="36.9660375" lon="15.0493638"><ele>415.0</ele><time>2026-03-28T09:56:26.5Z</time></trkpt><trkpt lat="36.9660415" lon="15.0494702"><ele>415.33333333333337</ele><time>2026-03-28T09:56:27.501Z</time></trkpt><trkpt lat="36.966047" lon="15.0495735"><ele>415.6666666666667</ele><time>2026-03-28T09:56:28.5Z</time></trkpt><trkpt lat="36.9660473" lon="15.0496657"><ele>416.0</ele><time>2026-03-28T09:56:29.5Z</time></trkpt><trkpt lat="36.9660456" lon="15.0497527"><ele>416.33333333333337</ele><time>2026-03-28T09:56:30.5Z</time></trkpt><trkpt lat="36.9660545" lon="15.049843"><ele>416.6666666666667</ele><time>2026-03-28T09:56:31.5Z</time></trkpt><trkpt lat="36.9660664" lon="15.0499951"><ele>417.0</ele><time>2026-03-28T09:56:33.5Z</time></trkpt><trkpt lat="36.9660824" lon="15.0501427"><ele>418.0</ele><time>2026-03-28T09:56:35.501Z</time></trkpt><trkpt lat="36.9660921" lon="15.0502413"><ele>419.0</ele><time>2026-03-28T09:56:37.5Z</time></trkpt><trkpt lat="36.9661744" lon="15.0503357"><ele>420.0</ele><time>2026-03-28T09:57:17.5Z</time></trkpt><trkpt lat="36.9662633" lon="15.0504134"><ele>421.0</ele><time>2026-03-28T09:57:19.499Z</time></trkpt><trkpt lat="36.9663575" lon="15.0504917"><ele>422.0</ele><time>2026-03-28T09:57:21.501Z</time></trkpt><trkpt lat="36.9664642" lon="15.0505688"><ele>422.0</ele><time>2026-03-28T09:57:23.5Z</time></trkpt><trkpt lat="36.9665734" lon="15.0506429"><ele>422.0</ele><time>2026-03-28T09:57:25.5Z</time></trkpt><trkpt lat="36.9666841" lon="15.0507037"><ele>422.0</ele><time>2026-03-28T09:57:27.5Z</time></trkpt><trkpt lat="36.9667821" lon="15.0507914"><ele>422.0</ele><time>2026-03-28T09:57:29.5Z</time></trkpt><trkpt lat="36.966835" lon="15.0508387"><ele>422.0</ele><time>2026-03-28T09:57:30.5Z</time></trkpt><trkpt lat="36.9668903" lon="15.0508891"><ele>424.66666666666663</ele><time>2026-03-28T09:57:31.5Z</time></trkpt><trkpt lat="36.9669582" lon="15.0509543"><ele>427.3333333333333</ele><time>2026-03-28T09:57:32.5Z</time></trkpt><trkpt lat="36.9670266" lon="15.0510234"><ele>430.0</ele><time>2026-03-28T09:57:33.5Z</time></trkpt><trkpt lat="36.9670861" lon="15.0510814"><ele>432.66666666666663</ele><time>2026-03-28T09:57:34.5Z</time></trkpt><trkpt lat="36.9671506" lon="15.0511437"><ele>435.3333333333333</ele><time>2026-03-28T09:57:35.5Z</time></trkpt><trkpt lat="36.9672284" lon="15.0512248"><ele>438.0</ele><time>2026-03-28T09:57:36.5Z</time></trkpt><trkpt lat="36.967308" lon="15.051302"><ele>438.0</ele><time>2026-03-28T09:57:37.5Z</time></trkpt><trkpt lat="36.9674071" lon="15.051372"><ele>438.0</ele><time>2026-03-28T09:57:38.499Z</time></trkpt><trkpt lat="36.9674867" lon="15.0514212"><ele>438.0</ele><time>2026-03-28T09:57:39.499Z</time></trkpt><trkpt lat="36.9675536" lon="15.0514694"><ele>438.0</ele><time>2026-03-28T09:57:40.5Z</time></trkpt><trkpt lat="36.9676189" lon="15.0515125"><ele>438.0</ele><time>2026-03-28T09:57:41.5Z</time></trkpt><trkpt lat="36.9676796" lon="15.0515518"><ele>438.0</ele><time>2026-03-28T09:57:42.5Z</time></trkpt><trkpt lat="36.9677446" lon="15.0516047"><ele>439.0</ele><time>2026-03-28T09:57:43.5Z</time></trkpt><trkpt lat="36.9678235" lon="15.0516868"><ele>439.99999999999994</ele><time>2026-03-28T09:57:45.501Z</time></trkpt><trkpt lat="36.9679145" lon="15.0517771"><ele>440.99999999999994</ele><time>2026-03-28T09:57:47.501Z</time></trkpt><trkpt lat="36.968" lon="15.0518879"><ele>442.0</ele><time>2026-03-28T09:57:49.499Z</time></trkpt><trkpt lat="36.9680456" lon="15.0519455"><ele>443.0</ele><time>2026-03-28T09:57:50.499Z</time></trkpt><trkpt lat="36.9680929" lon="15.0520043"><ele>443.0</ele><time>2026-03-28T09:57:51.501Z</time></trkpt><trkpt lat="36.968141" lon="15.0520557"><ele>442.99999999999994</ele><time>2026-03-28T09:57:52.5Z</time></trkpt><trkpt lat="36.9682411" lon="15.0521451"><ele>442.99999999999994</ele><time>2026-03-28T09:57:54.5Z</time></trkpt><trkpt lat="36.9683459" lon="15.0522081"><ele>443.0</ele><time>2026-03-28T09:57:56.501Z</time></trkpt><trkpt lat="36.9684476" lon="15.052282"><ele>443.0</ele><time>2026-03-28T09:57:58.5Z</time></trkpt><trkpt lat="36.9685381" lon="15.0523607"><ele>442.4</ele><time>2026-03-28T09:58:00.5Z</time></trkpt><trkpt lat="36.9686366" lon="15.0524376"><ele>441.79999999999995</ele><time>2026-03-28T09:58:02.499Z</time></trkpt><trkpt lat="36.9687254" lon="15.0525173"><ele>441.2</ele><time>2026-03-28T09:58:04.5Z</time></trkpt><trkpt lat="36.9688162" lon="15.0525912"><ele>440.6</ele><time>2026-03-28T09:58:06.501Z</time></trkpt><trkpt lat="36.9688726" lon="15.0526372"><ele>440.0</ele><time>2026-03-28T09:58:08.5Z</time></trkpt><trkpt lat="36.9689578" lon="15.0527133"><ele>441.6</ele><time>2026-03-28T09:58:10.5Z</time></trkpt><trkpt lat="36.9690406" lon="15.0527872"><ele>443.2</ele><time>2026-03-28T09:58:12.501Z</time></trkpt><trkpt lat="36.9691369" lon="15.0528707"><ele>444.79999999999995</ele><time>2026-03-28T09:58:14.501Z</time></trkpt><trkpt lat="36.9691914" lon="15.0529149"><ele>446.4</ele><time>2026-03-28T09:58:15.499Z</time></trkpt><trkpt lat="36.9692932" lon="15.0529958"><ele>448.0</ele><time>2026-03-28T09:58:17.5Z</time></trkpt><trkpt lat="36.969349" lon="15.053041"><ele>448.6666666666667</ele><time>2026-03-28T09:58:18.501Z</time></trkpt><trkpt lat="36.9694134" lon="15.0530871"><ele>449.33333333333337</ele><time>2026-03-28T09:58:19.5Z</time></trkpt><trkpt lat="36.9694706" lon="15.0531306"><ele>450.0</ele><time>2026-03-28T09:58:20.499Z</time></trkpt><trkpt lat="36.9695288" lon="15.053178"><ele>450.66666666666663</ele><time>2026-03-28T09:58:21.501Z</time></trkpt><trkpt lat="36.969639" lon="15.0532671"><ele>451.3333333333333</ele><time>2026-03-28T09:58:23.501Z</time></trkpt><trkpt lat="36.9697013" lon="15.0533127"><ele>452.0</ele><time>2026-03-28T09:58:24.5Z</time></trkpt><trkpt lat="36.9697572" lon="15.0533493"><ele>453.6</ele><time>2026-03-28T09:58:25.501Z</time></trkpt><trkpt lat="36.969861" lon="15.0534262"><ele>455.20000000000005</ele><time>2026-03-28T09:58:27.5Z</time></trkpt><trkpt lat="36.9699386" lon="15.053477"><ele>456.8</ele><time>2026-03-28T09:58:29.5Z</time></trkpt><trkpt lat="36.970019" lon="15.0534711"><ele>458.4</ele><time>2026-03-28T09:58:32.499Z</time></trkpt><trkpt lat="36.9700795" lon="15.0534264"><ele>460.0</ele><time>2026-03-28T09:58:34.5Z</time></trkpt><trkpt lat="36.9701713" lon="15.0533556"><ele>460.4</ele><time>2026-03-28T09:58:36.5Z</time></trkpt><trkpt lat="36.9702686" lon="15.0532823"><ele>460.8</ele><time>2026-03-28T09:58:38.501Z</time></trkpt><trkpt lat="36.9703643" lon="15.053201"><ele>461.20000000000005</ele><time>2026-03-28T09:58:40.501Z</time></trkpt><trkpt lat="36.9704387" lon="15.0530937"><ele>461.6</ele><time>2026-03-28T09:58:42.5Z</time></trkpt><trkpt lat="36.9705102" lon="15.0530125"><ele>462.0</ele><time>2026-03-28T09:58:44.5Z</time></trkpt><trkpt lat="36.9706099" lon="15.0529589"><ele>462.0</ele><time>2026-03-28T09:58:46.501Z</time></trkpt><trkpt lat="36.9706851" lon="15.0529484"><ele>462.0</ele><time>2026-03-28T09:58:47.499Z</time></trkpt><trkpt lat="36.9707986" lon="15.0529843"><ele>462.0</ele><time>2026-03-28T09:58:49.499Z</time></trkpt><trkpt lat="36.9709045" lon="15.0530485"><ele>462.0</ele><time>2026-03-28T09:58:51.5Z</time></trkpt><trkpt lat="36.9709694" lon="15.0530786"><ele>462.0</ele><time>2026-03-28T09:58:52.5Z</time></trkpt><trkpt lat="36.9710343" lon="15.0531076"><ele>462.0</ele><time>2026-03-28T09:58:53.501Z</time></trkpt><trkpt lat="36.9711024" lon="15.0531368"><ele>463.42857142857144</ele><time>2026-03-28T09:58:54.501Z</time></trkpt><trkpt lat="36.9711654" lon="15.0531666"><ele>464.8571428571429</ele><time>2026-03-28T09:58:55.5Z</time></trkpt><trkpt lat="36.9712288" lon="15.0531976"><ele>466.2857142857143</ele><time>2026-03-28T09:58:56.5Z</time></trkpt><trkpt lat="36.9712948" lon="15.0532298"><ele>467.7142857142857</ele><time>2026-03-28T09:58:57.5Z</time></trkpt><trkpt lat="36.9713589" lon="15.0532654"><ele>469.14285714285717</ele><time>2026-03-28T09:58:58.501Z</time></trkpt><trkpt lat="36.9714213" lon="15.0532963"><ele>470.57142857142856</ele><time>2026-03-28T09:58:59.499Z</time></trkpt><trkpt lat="36.9714865" lon="15.0533283"><ele>472.0</ele><time>2026-03-28T09:59:00.5Z</time></trkpt><trkpt lat="36.9715542" lon="15.0533619"><ele>473.00000000000006</ele><time>2026-03-28T09:59:01.498Z</time></trkpt><trkpt lat="36.9716567" lon="15.0534106"><ele>474.0</ele><time>2026-03-28T09:59:03.498Z</time></trkpt><trkpt lat="36.9717182" lon="15.0534514"><ele>475.0</ele><time>2026-03-28T09:59:05.5Z</time></trkpt><trkpt lat="36.9717325" lon="15.0535564"><ele>476.0</ele><time>2026-03-28T10:00:13.5Z</time></trkpt><trkpt lat="36.9717059" lon="15.0536505"><ele>477.00000000000006</ele><time>2026-03-28T10:00:14.501Z</time></trkpt><trkpt lat="36.9716707" lon="15.0537589"><ele>478.0</ele><time>2026-03-28T10:00:15.501Z</time></trkpt><trkpt lat="36.9716322" lon="15.0539033"><ele>478.0</ele><time>2026-03-28T10:00:16.501Z</time></trkpt><trkpt lat="36.9715924" lon="15.054056"><ele>478.0</ele><time>2026-03-28T10:00:17.501Z</time></trkpt><trkpt lat="36.9715504" lon="15.0542396"><ele>478.0</ele><time>2026-03-28T10:00:18.501Z</time></trkpt><trkpt lat="36.9715023" lon="15.0544429"><ele>478.6666666666667</ele><time>2026-03-28T10:00:19.5Z</time></trkpt><trkpt lat="36.971452" lon="15.054646"><ele>479.33333333333337</ele><time>2026-03-28T10:00:20.5Z</time></trkpt><trkpt lat="36.9714057" lon="15.054834"><ele>480.0</ele><time>2026-03-28T10:00:21.5Z</time></trkpt><trkpt lat="36.9713591" lon="15.0550063"><ele>480.0</ele><time>2026-03-28T10:00:22.5Z</time></trkpt><trkpt lat="36.9713145" lon="15.0551788"><ele>480.0</ele><time>2026-03-28T10:00:23.499Z</time></trkpt><trkpt lat="36.9712729" lon="15.0553485"><ele>480.0</ele><time>2026-03-28T10:00:24.501Z</time></trkpt><trkpt lat="36.9712327" lon="15.0555001"><ele>480.0</ele><time>2026-03-28T10:00:25.499Z</time></trkpt><trkpt lat="36.9711975" lon="15.0556429"><ele>478.75</ele><time>2026-03-28T10:00:26.5Z</time></trkpt><trkpt lat="36.9711719" lon="15.0557984"><ele>477.5</ele><time>2026-03-28T10:00:27.501Z</time></trkpt><trkpt lat="36.9711492" lon="15.0559717"><ele>476.25</ele><time>2026-03-28T10:00:28.5Z</time></trkpt><trkpt lat="36.9711184" lon="15.0561639"><ele>475.0</ele><time>2026-03-28T10:00:29.501Z</time></trkpt><trkpt lat="36.9710875" lon="15.0563597"><ele>475.0</ele><time>2026-03-28T10:00:30.499Z</time></trkpt><trkpt lat="36.9710621" lon="15.0565426"><ele>475.0</ele><time>2026-03-28T10:00:31.5Z</time></trkpt><trkpt lat="36.9710333" lon="15.0567159"><ele>475.0</ele><time>2026-03-28T10:00:32.5Z</time></trkpt><trkpt lat="36.9710043" lon="15.0568828"><ele>475.0</ele><time>2026-03-28T10:00:33.5Z</time></trkpt><trkpt lat="36.9709754" lon="15.0570411"><ele>475.25</ele><time>2026-03-28T10:00:34.499Z</time></trkpt><trkpt lat="36.9709385" lon="15.0571973"><ele>475.5</ele><time>2026-03-28T10:00:35.501Z</time></trkpt><trkpt lat="36.9708829" lon="15.0573509"><ele>475.75</ele><time>2026-03-28T10:00:36.5Z</time></trkpt><trkpt lat="36.9708054" lon="15.0575142"><ele>476.0</ele><time>2026-03-28T10:00:37.499Z</time></trkpt><trkpt lat="36.9707271" lon="15.0576818"><ele>476.0</ele><time>2026-03-28T10:00:38.499Z</time></trkpt><trkpt lat="36.9706504" lon="15.0578438"><ele>476.0</ele><time>2026-03-28T10:00:39.5Z</time></trkpt><trkpt lat="36.9705705" lon="15.057998"><ele>476.0</ele><time>2026-03-28T10:00:40.501Z</time></trkpt><trkpt lat="36.9704884" lon="15.0581542"><ele>476.0</ele><time>2026-03-28T10:00:41.5Z</time></trkpt><trkpt lat="36.9704127" lon="15.0583032"><ele>474.75</ele><time>2026-03-28T10:00:42.5Z</time></trkpt><trkpt lat="36.9703486" lon="15.0584653"><ele>473.5</ele><time>2026-03-28T10:00:43.5Z</time></trkpt><trkpt lat="36.9703066" lon="15.0586469"><ele>472.25</ele><time>2026-03-28T10:00:44.501Z</time></trkpt><trkpt lat="36.9702982" lon="15.0588382"><ele>471.0</ele><time>2026-03-28T10:00:45.5Z</time></trkpt><trkpt lat="36.9703112" lon="15.0590356"><ele>472.0</ele><time>2026-03-28T10:00:46.501Z</time></trkpt><trkpt lat="36.9703486" lon="15.05925"><ele>473.0</ele><time>2026-03-28T10:00:47.5Z</time></trkpt><trkpt lat="36.9703986" lon="15.0594766"><ele>474.0</ele><time>2026-03-28T10:00:48.5Z</time></trkpt><trkpt lat="36.9704569" lon="15.059711"><ele>476.0</ele><time>2026-03-28T10:00:49.5Z</time></trkpt><trkpt lat="36.9705179" lon="15.0599516"><ele>478.0</ele><time>2026-03-28T10:00:50.5Z</time></trkpt><trkpt lat="36.9705719" lon="15.0601788"><ele>480.0</ele><time>2026-03-28T10:00:51.501Z</time></trkpt><trkpt lat="36.9706231" lon="15.0603951"><ele>480.0</ele><time>2026-03-28T10:00:52.5Z</time></trkpt><trkpt lat="36.9706755" lon="15.0606057"><ele>480.0</ele><time>2026-03-28T10:00:53.5Z</time></trkpt><trkpt lat="36.970724" lon="15.0608133"><ele>480.0</ele><time>2026-03-28T10:00:54.5Z</time></trkpt><trkpt lat="36.9707706" lon="15.0610114"><ele>481.5</ele><time>2026-03-28T10:00:55.5Z</time></trkpt><trkpt lat="36.9708149" lon="15.0611949"><ele>483.0</ele><time>2026-03-28T10:00:56.499Z</time></trkpt><trkpt lat="36.9708544" lon="15.0613619"><ele>484.5</ele><time>2026-03-28T10:00:57.501Z</time></trkpt><trkpt lat="36.9708832" lon="15.06153"><ele>486.0</ele><time>2026-03-28T10:00:58.5Z</time></trkpt><trkpt lat="36.9708858" lon="15.0617139"><ele>487.25</ele><time>2026-03-28T10:00:59.501Z</time></trkpt><trkpt lat="36.9708697" lon="15.0619061"><ele>488.5</ele><time>2026-03-28T10:01:00.499Z</time></trkpt><trkpt lat="36.9708557" lon="15.0620822"><ele>489.75</ele><time>2026-03-28T10:01:01.501Z</time></trkpt><trkpt lat="36.9708439" lon="15.0622307"><ele>491.0</ele><time>2026-03-28T10:01:02.5Z</time></trkpt><trkpt lat="36.9708361" lon="15.0623496"><ele>491.0</ele><time>2026-03-28T10:01:03.499Z</time></trkpt><trkpt lat="36.9708476" lon="15.0624389"><ele>491.0</ele><time>2026-03-28T10:01:04.499Z</time></trkpt><trkpt lat="36.9709023" lon="15.0625082"><ele>491.0</ele><time>2026-03-28T10:01:05.5Z</time></trkpt><trkpt lat="36.9709952" lon="15.0625496"><ele>491.0</ele><time>2026-03-28T10:01:06.499Z</time></trkpt><trkpt lat="36.9711151" lon="15.0625796"><ele>491.0</ele><time>2026-03-28T10:01:07.5Z</time></trkpt><trkpt lat="36.9712538" lon="15.0626265"><ele>493.25</ele><time>2026-03-28T10:01:08.5Z</time></trkpt><trkpt lat="36.9713922" lon="15.0626807"><ele>495.5</ele><time>2026-03-28T10:01:09.499Z</time></trkpt><trkpt lat="36.9715131" lon="15.0627318"><ele>497.75</ele><time>2026-03-28T10:01:10.5Z</time></trkpt><trkpt lat="36.9716072" lon="15.0627816"><ele>500.0</ele><time>2026-03-28T10:01:11.5Z</time></trkpt><trkpt lat="36.9716852" lon="15.0628555"><ele>499.5</ele><time>2026-03-28T10:01:12.501Z</time></trkpt><trkpt lat="36.9717671" lon="15.0629655"><ele>499.0</ele><time>2026-03-28T10:01:13.5Z</time></trkpt><trkpt lat="36.9718511" lon="15.0630795"><ele>498.5</ele><time>2026-03-28T10:01:14.501Z</time></trkpt><trkpt lat="36.971925" lon="15.0631962"><ele>498.0</ele><time>2026-03-28T10:01:15.501Z</time></trkpt><trkpt lat="36.9719856" lon="15.0633442"><ele>498.0</ele><time>2026-03-28T10:01:16.499Z</time></trkpt><trkpt lat="36.9720341" lon="15.0635284"><ele>498.0</ele><time>2026-03-28T10:01:17.501Z</time></trkpt><trkpt lat="36.9720766" lon="15.0637185"><ele>498.0</ele><time>2026-03-28T10:01:18.5Z</time></trkpt><trkpt lat="36.972103" lon="15.0638889"><ele>498.0</ele><time>2026-03-28T10:01:19.5Z</time></trkpt><trkpt lat="36.9721173" lon="15.0640568"><ele>498.0</ele><time>2026-03-28T10:01:20.5Z</time></trkpt><trkpt lat="36.9721319" lon="15.0642152"><ele>498.0</ele><time>2026-03-28T10:01:21.5Z</time></trkpt><trkpt lat="36.9721428" lon="15.0643546"><ele>498.0</ele><time>2026-03-28T10:01:22.5Z</time></trkpt><trkpt lat="36.9721494" lon="15.064485"><ele>499.2</ele><time>2026-03-28T10:01:23.501Z</time></trkpt><trkpt lat="36.9721566" lon="15.0646175"><ele>500.4</ele><time>2026-03-28T10:01:24.5Z</time></trkpt><trkpt lat="36.9721647" lon="15.0647538"><ele>501.59999999999997</ele><time>2026-03-28T10:01:25.5Z</time></trkpt><trkpt lat="36.9721761" lon="15.064886"><ele>502.79999999999995</ele><time>2026-03-28T10:01:26.499Z</time></trkpt><trkpt lat="36.9721799" lon="15.0650149"><ele>504.0</ele><time>2026-03-28T10:01:27.499Z</time></trkpt><trkpt lat="36.972155" lon="15.0651547"><ele>504.0</ele><time>2026-03-28T10:01:28.501Z</time></trkpt><trkpt lat="36.9720958" lon="15.0653137"><ele>504.0</ele><time>2026-03-28T10:01:29.499Z</time></trkpt><trkpt lat="36.9720185" lon="15.0654929"><ele>504.0</ele><time>2026-03-28T10:01:30.5Z</time></trkpt><trkpt lat="36.9719353" lon="15.0657029"><ele>502.33333333333337</ele><time>2026-03-28T10:01:31.5Z</time></trkpt><trkpt lat="36.9718687" lon="15.0659203"><ele>500.6666666666667</ele><time>2026-03-28T10:01:32.5Z</time></trkpt><trkpt lat="36.9718243" lon="15.0661527"><ele>499.0</ele><time>2026-03-28T10:01:33.501Z</time></trkpt><trkpt lat="36.9717902" lon="15.0663825"><ele>499.0</ele><time>2026-03-28T10:01:34.5Z</time></trkpt><trkpt lat="36.9717567" lon="15.0665897"><ele>499.0</ele><time>2026-03-28T10:01:35.501Z</time></trkpt><trkpt lat="36.9717183" lon="15.0667865"><ele>499.0</ele><time>2026-03-28T10:01:36.5Z</time></trkpt><trkpt lat="36.9716816" lon="15.0669705"><ele>500.0</ele><time>2026-03-28T10:01:37.5Z</time></trkpt><trkpt lat="36.971645" lon="15.0671463"><ele>501.0</ele><time>2026-03-28T10:01:38.5Z</time></trkpt><trkpt lat="36.9715931" lon="15.0673394"><ele>502.0</ele><time>2026-03-28T10:01:39.5Z</time></trkpt><trkpt lat="36.9715152" lon="15.067551"><ele>502.0</ele><time>2026-03-28T10:01:40.5Z</time></trkpt><trkpt lat="36.9714176" lon="15.067773"><ele>502.0</ele><time>2026-03-28T10:01:41.5Z</time></trkpt><trkpt lat="36.9713165" lon="15.0680096"><ele>502.0</ele><time>2026-03-28T10:01:42.5Z</time></trkpt><trkpt lat="36.9712159" lon="15.0682546"><ele>500.6666666666667</ele><time>2026-03-28T10:01:43.5Z</time></trkpt><trkpt lat="36.9711174" lon="15.0684897"><ele>499.33333333333337</ele><time>2026-03-28T10:01:44.499Z</time></trkpt><trkpt lat="36.9710226" lon="15.0687068"><ele>498.0</ele><time>2026-03-28T10:01:45.499Z</time></trkpt><trkpt lat="36.9709271" lon="15.0688984"><ele>497.33333333333337</ele><time>2026-03-28T10:01:46.499Z</time></trkpt><trkpt lat="36.970819" lon="15.069055"><ele>496.6666666666667</ele><time>2026-03-28T10:01:47.499Z</time></trkpt><trkpt lat="36.9706921" lon="15.0691833"><ele>496.0</ele><time>2026-03-28T10:01:48.5Z</time></trkpt><trkpt lat="36.9705665" lon="15.069299"><ele>496.0</ele><time>2026-03-28T10:01:49.5Z</time></trkpt><trkpt lat="36.970448" lon="15.0694215"><ele>496.0</ele><time>2026-03-28T10:01:50.501Z</time></trkpt><trkpt lat="36.9703405" lon="15.0695551"><ele>496.0</ele><time>2026-03-28T10:01:51.5Z</time></trkpt><trkpt lat="36.9702558" lon="15.0697012"><ele>496.0</ele><time>2026-03-28T10:01:52.5Z</time></trkpt><trkpt lat="36.9701906" lon="15.069876"><ele>496.25</ele><time>2026-03-28T10:01:53.5Z</time></trkpt><trkpt lat="36.9701482" lon="15.0700644"><ele>496.5</ele><time>2026-03-28T10:01:54.5Z</time></trkpt><trkpt lat="36.9701182" lon="15.0702425"><ele>496.75</ele><time>2026-03-28T10:01:55.501Z</time></trkpt><trkpt lat="36.9700813" lon="15.0704102"><ele>497.0</ele><time>2026-03-28T10:01:56.5Z</time></trkpt><trkpt lat="36.9700155" lon="15.0705668"><ele>496.3333333333333</ele><time>2026-03-28T10:01:57.5Z</time></trkpt><trkpt lat="36.9699025" lon="15.0707131"><ele>495.66666666666663</ele><time>2026-03-28T10:01:58.499Z</time></trkpt><trkpt lat="36.9697705" lon="15.0708583"><ele>495.0</ele><time>2026-03-28T10:01:59.501Z</time></trkpt><trkpt lat="36.969657" lon="15.0710008"><ele>494.25</ele><time>2026-03-28T10:02:00.5Z</time></trkpt><trkpt lat="36.9695604" lon="15.0711362"><ele>493.5</ele><time>2026-03-28T10:02:01.501Z</time></trkpt><trkpt lat="36.969484" lon="15.071285"><ele>492.75</ele><time>2026-03-28T10:02:02.5Z</time></trkpt><trkpt lat="36.9694388" lon="15.0714787"><ele>492.0</ele><time>2026-03-28T10:02:03.501Z</time></trkpt><trkpt lat="36.9694143" lon="15.0716992"><ele>490.33333333333337</ele><time>2026-03-28T10:02:04.5Z</time></trkpt><trkpt lat="36.9693886" lon="15.0719272"><ele>488.6666666666667</ele><time>2026-03-28T10:02:05.5Z</time></trkpt><trkpt lat="36.9693559" lon="15.0721482"><ele>487.0</ele><time>2026-03-28T10:02:06.5Z</time></trkpt><trkpt lat="36.9693232" lon="15.0723539"><ele>485.0</ele><time>2026-03-28T10:02:07.5Z</time></trkpt><trkpt lat="36.9692909" lon="15.0725568"><ele>483.0</ele><time>2026-03-28T10:02:08.5Z</time></trkpt><trkpt lat="36.9692578" lon="15.0727648"><ele>481.0</ele><time>2026-03-28T10:02:09.5Z</time></trkpt><trkpt lat="36.9692237" lon="15.0729699"><ele>483.6666666666667</ele><time>2026-03-28T10:02:10.501Z</time></trkpt><trkpt lat="36.9691903" lon="15.0731657"><ele>486.33333333333337</ele><time>2026-03-28T10:02:11.5Z</time></trkpt><trkpt lat="36.9691507" lon="15.0733554"><ele>489.0</ele><time>2026-03-28T10:02:12.501Z</time></trkpt><trkpt lat="36.969096" lon="15.0735436"><ele>489.0</ele><time>2026-03-28T10:02:13.5Z</time></trkpt><trkpt lat="36.9690273" lon="15.0737282"><ele>489.0</ele><time>2026-03-28T10:02:14.499Z</time></trkpt><trkpt lat="36.9689525" lon="15.0739026"><ele>489.0</ele><time>2026-03-28T10:02:15.499Z</time></trkpt><trkpt lat="36.9688744" lon="15.0740691"><ele>487.66666666666663</ele><time>2026-03-28T10:02:16.501Z</time></trkpt><trkpt lat="36.9687962" lon="15.0742344"><ele>486.3333333333333</ele><time>2026-03-28T10:02:17.5Z</time></trkpt><trkpt lat="36.9687178" lon="15.0744041"><ele>485.0</ele><time>2026-03-28T10:02:18.5Z</time></trkpt><trkpt lat="36.9686478" lon="15.0745875"><ele>485.0</ele><time>2026-03-28T10:02:19.5Z</time></trkpt><trkpt lat="36.9686078" lon="15.0748128"><ele>485.0</ele><time>2026-03-28T10:02:20.5Z</time></trkpt><trkpt lat="36.968583" lon="15.0750581"><ele>485.0</ele><time>2026-03-28T10:02:21.501Z</time></trkpt><trkpt lat="36.9685593" lon="15.0753072"><ele>484.3333333333333</ele><time>2026-03-28T10:02:22.5Z</time></trkpt><trkpt lat="36.9685326" lon="15.0755382"><ele>483.66666666666663</ele><time>2026-03-28T10:02:23.501Z</time></trkpt><trkpt lat="36.9685131" lon="15.0757521"><ele>483.0</ele><time>2026-03-28T10:02:24.501Z</time></trkpt><trkpt lat="36.9684984" lon="15.0759443"><ele>483.0</ele><time>2026-03-28T10:02:25.499Z</time></trkpt><trkpt lat="36.9684899" lon="15.0761123"><ele>483.0</ele><time>2026-03-28T10:02:26.501Z</time></trkpt><trkpt lat="36.9684938" lon="15.0762673"><ele>483.0</ele><time>2026-03-28T10:02:27.501Z</time></trkpt><trkpt lat="36.9685411" lon="15.0764265"><ele>483.0</ele><time>2026-03-28T10:02:28.5Z</time></trkpt><trkpt lat="36.96863" lon="15.0765951"><ele>483.33333333333337</ele><time>2026-03-28T10:02:29.5Z</time></trkpt><trkpt lat="36.9687302" lon="15.0767742"><ele>483.6666666666667</ele><time>2026-03-28T10:02:30.5Z</time></trkpt><trkpt lat="36.9688252" lon="15.0769583"><ele>484.0</ele><time>2026-03-28T10:02:31.5Z</time></trkpt><trkpt lat="36.9689104" lon="15.0771307"><ele>484.0</ele><time>2026-03-28T10:02:32.501Z</time></trkpt><trkpt lat="36.9689882" lon="15.0772839"><ele>484.0</ele><time>2026-03-28T10:02:33.499Z</time></trkpt><trkpt lat="36.9690571" lon="15.0774177"><ele>484.0</ele><time>2026-03-28T10:02:34.5Z</time></trkpt><trkpt lat="36.9691" lon="15.0775403"><ele>484.0</ele><time>2026-03-28T10:02:35.501Z</time></trkpt><trkpt lat="36.9690982" lon="15.07768"><ele>484.6666666666667</ele><time>2026-03-28T10:02:36.5Z</time></trkpt><trkpt lat="36.9690446" lon="15.0778491"><ele>485.33333333333337</ele><time>2026-03-28T10:02:37.5Z</time></trkpt><trkpt lat="36.9689921" lon="15.0780309"><ele>486.0</ele><time>2026-03-28T10:02:38.5Z</time></trkpt><trkpt lat="36.9689405" lon="15.0782346"><ele>487.33333333333337</ele><time>2026-03-28T10:02:39.5Z</time></trkpt><trkpt lat="36.9688859" lon="15.0784323"><ele>488.6666666666667</ele><time>2026-03-28T10:02:40.5Z</time></trkpt><trkpt lat="36.9688305" lon="15.0786343"><ele>490.0</ele><time>2026-03-28T10:02:41.501Z</time></trkpt><trkpt lat="36.9687749" lon="15.078835"><ele>490.0</ele><time>2026-03-28T10:02:42.499Z</time></trkpt><trkpt lat="36.9687218" lon="15.0790423"><ele>490.0</ele><time>2026-03-28T10:02:43.5Z</time></trkpt><trkpt lat="36.968672" lon="15.079266"><ele>490.0</ele><time>2026-03-28T10:02:44.499Z</time></trkpt><trkpt lat="36.9686328" lon="15.0795082"><ele>490.33333333333337</ele><time>2026-03-28T10:02:45.5Z</time></trkpt><trkpt lat="36.9686052" lon="15.0797661"><ele>490.66666666666663</ele><time>2026-03-28T10:02:46.499Z</time></trkpt><trkpt lat="36.9685759" lon="15.0800302"><ele>491.0</ele><time>2026-03-28T10:02:47.5Z</time></trkpt><trkpt lat="36.9685451" lon="15.080279"><ele>491.0</ele><time>2026-03-28T10:02:48.5Z</time></trkpt><trkpt lat="36.9685082" lon="15.0805072"><ele>491.0</ele><time>2026-03-28T10:02:49.498Z</time></trkpt><trkpt lat="36.9684472" lon="15.0807173"><ele>491.0</ele><time>2026-03-28T10:02:50.498Z</time></trkpt><trkpt lat="36.9683752" lon="15.0809356"><ele>491.3333333333333</ele><time>2026-03-28T10:02:51.499Z</time></trkpt><trkpt lat="36.9683023" lon="15.0811622"><ele>491.66666666666663</ele><time>2026-03-28T10:02:52.499Z</time></trkpt><trkpt lat="36.9682293" lon="15.0813931"><ele>492.0</ele><time>2026-03-28T10:02:53.5Z</time></trkpt><trkpt lat="36.9681482" lon="15.0816318"><ele>493.33333333333337</ele><time>2026-03-28T10:02:54.499Z</time></trkpt><trkpt lat="36.9680697" lon="15.0818655"><ele>494.6666666666667</ele><time>2026-03-28T10:02:55.499Z</time></trkpt><trkpt lat="36.9679997" lon="15.0820791"><ele>496.0</ele><time>2026-03-28T10:02:56.5Z</time></trkpt><trkpt lat="36.9679338" lon="15.08228"><ele>497.0</ele><time>2026-03-28T10:02:57.499Z</time></trkpt><trkpt lat="36.9678698" lon="15.0824658"><ele>498.0</ele><time>2026-03-28T10:02:58.5Z</time></trkpt><trkpt lat="36.9677885" lon="15.0826475"><ele>499.0</ele><time>2026-03-28T10:02:59.499Z</time></trkpt><trkpt lat="36.9676872" lon="15.0828228"><ele>499.0</ele><time>2026-03-28T10:03:00.499Z</time></trkpt><trkpt lat="36.9675827" lon="15.0829954"><ele>499.0</ele><time>2026-03-28T10:03:01.499Z</time></trkpt><trkpt lat="36.9674736" lon="15.0831701"><ele>499.0</ele><time>2026-03-28T10:03:02.5Z</time></trkpt><trkpt lat="36.9673573" lon="15.0833451"><ele>500.0</ele><time>2026-03-28T10:03:03.5Z</time></trkpt><trkpt lat="36.9672281" lon="15.083523"><ele>501.0</ele><time>2026-03-28T10:03:04.499Z</time></trkpt><trkpt lat="36.9670832" lon="15.0837037"><ele>502.0</ele><time>2026-03-28T10:03:05.499Z</time></trkpt><trkpt lat="36.9669202" lon="15.0838929"><ele>502.0</ele><time>2026-03-28T10:03:06.5Z</time></trkpt><trkpt lat="36.9667477" lon="15.0840899"><ele>502.0</ele><time>2026-03-28T10:03:07.499Z</time></trkpt><trkpt lat="36.966577" lon="15.0842896"><ele>501.33333333333337</ele><time>2026-03-28T10:03:08.5Z</time></trkpt><trkpt lat="36.9664133" lon="15.0844774"><ele>500.66666666666663</ele><time>2026-03-28T10:03:09.499Z</time></trkpt><trkpt lat="36.9662577" lon="15.0846561"><ele>500.0</ele><time>2026-03-28T10:03:10.499Z</time></trkpt><trkpt lat="36.9661117" lon="15.0848207"><ele>499.0</ele><time>2026-03-28T10:03:11.499Z</time></trkpt><trkpt lat="36.9659826" lon="15.084968"><ele>498.0</ele><time>2026-03-28T10:03:12.499Z</time></trkpt><trkpt lat="36.9658632" lon="15.0851056"><ele>497.0</ele><time>2026-03-28T10:03:13.498Z</time></trkpt><trkpt lat="36.9657624" lon="15.0852465"><ele>497.0</ele><time>2026-03-28T10:03:14.499Z</time></trkpt><trkpt lat="36.96569" lon="15.0854141"><ele>497.0</ele><time>2026-03-28T10:03:15.5Z</time></trkpt><trkpt lat="36.9656443" lon="15.085616"><ele>497.0</ele><time>2026-03-28T10:03:16.499Z</time></trkpt><trkpt lat="36.9656238" lon="15.0858436"><ele>496.3333333333333</ele><time>2026-03-28T10:03:17.499Z</time></trkpt><trkpt lat="36.9656128" lon="15.086091"><ele>495.66666666666663</ele><time>2026-03-28T10:03:18.498Z</time></trkpt><trkpt lat="36.9656019" lon="15.0863482"><ele>495.0</ele><time>2026-03-28T10:03:19.499Z</time></trkpt><trkpt lat="36.9655926" lon="15.0865847"><ele>496.5</ele><time>2026-03-28T10:03:20.5Z</time></trkpt><trkpt lat="36.9655838" lon="15.0868005"><ele>498.0</ele><time>2026-03-28T10:03:21.499Z</time></trkpt><trkpt lat="36.9655713" lon="15.0869864"><ele>499.5</ele><time>2026-03-28T10:03:22.498Z</time></trkpt><trkpt lat="36.9655545" lon="15.0871358"><ele>501.0</ele><time>2026-03-28T10:03:23.5Z</time></trkpt><trkpt lat="36.965509" lon="15.0872657"><ele>501.0</ele><time>2026-03-28T10:03:24.499Z</time></trkpt><trkpt lat="36.9654189" lon="15.0873847"><ele>501.0</ele><time>2026-03-28T10:03:25.499Z</time></trkpt><trkpt lat="36.9653034" lon="15.08749"><ele>501.0</ele><time>2026-03-28T10:03:26.499Z</time></trkpt><trkpt lat="36.9652042" lon="15.0875878"><ele>501.0</ele><time>2026-03-28T10:03:27.5Z</time></trkpt><trkpt lat="36.9651218" lon="15.0876926"><ele>500.66666666666663</ele><time>2026-03-28T10:03:28.499Z</time></trkpt><trkpt lat="36.965084" lon="15.087862"><ele>500.3333333333333</ele><time>2026-03-28T10:03:29.499Z</time></trkpt><trkpt lat="36.9650674" lon="15.0880629"><ele>500.0</ele><time>2026-03-28T10:03:30.499Z</time></trkpt><trkpt lat="36.9650645" lon="15.0882863"><ele>500.0</ele><time>2026-03-28T10:03:31.499Z</time></trkpt><trkpt lat="36.9650618" lon="15.08851"><ele>500.0</ele><time>2026-03-28T10:03:32.5Z</time></trkpt><trkpt lat="36.9650585" lon="15.0887558"><ele>500.0</ele><time>2026-03-28T10:03:33.5Z</time></trkpt><trkpt lat="36.9650561" lon="15.0890061"><ele>500.0</ele><time>2026-03-28T10:03:34.499Z</time></trkpt><trkpt lat="36.9650531" lon="15.089246"><ele>500.0</ele><time>2026-03-28T10:03:35.499Z</time></trkpt><trkpt lat="36.9650491" lon="15.0894699"><ele>500.0</ele><time>2026-03-28T10:03:36.5Z</time></trkpt><trkpt lat="36.9650446" lon="15.0896804"><ele>500.0</ele><time>2026-03-28T10:03:37.5Z</time></trkpt><trkpt lat="36.9650386" lon="15.0898763"><ele>500.0</ele><time>2026-03-28T10:03:38.499Z</time></trkpt><trkpt lat="36.9650155" lon="15.0900649"><ele>500.0</ele><time>2026-03-28T10:03:39.5Z</time></trkpt><trkpt lat="36.9649604" lon="15.0902578"><ele>500.3333333333333</ele><time>2026-03-28T10:03:40.499Z</time></trkpt><trkpt lat="36.9648928" lon="15.0904345"><ele>500.66666666666663</ele><time>2026-03-28T10:03:41.499Z</time></trkpt><trkpt lat="36.9648061" lon="15.0906111"><ele>501.0</ele><time>2026-03-28T10:03:42.499Z</time></trkpt><trkpt lat="36.9647173" lon="15.0907861"><ele>501.0</ele><time>2026-03-28T10:03:43.498Z</time></trkpt><trkpt lat="36.9646359" lon="15.0909529"><ele>501.0</ele><time>2026-03-28T10:03:44.499Z</time></trkpt><trkpt lat="36.964559" lon="15.0911161"><ele>501.0</ele><time>2026-03-28T10:03:45.499Z</time></trkpt><trkpt lat="36.9644858" lon="15.0912741"><ele>501.0</ele><time>2026-03-28T10:03:46.5Z</time></trkpt><trkpt lat="36.9644163" lon="15.0914377"><ele>501.0</ele><time>2026-03-28T10:03:47.499Z</time></trkpt><trkpt lat="36.9643617" lon="15.0916113"><ele>501.0</ele><time>2026-03-28T10:03:48.499Z</time></trkpt><trkpt lat="36.9637556" lon="15.0933914"><ele>499.6</ele><time>2026-03-28T10:04:00.499Z</time></trkpt><trkpt lat="36.963753" lon="15.0934727"><ele>498.20000000000005</ele><time>2026-03-28T10:04:01.5Z</time></trkpt><trkpt lat="36.9637752" lon="15.0935582"><ele>496.79999999999995</ele><time>2026-03-28T10:04:03.5Z</time></trkpt><trkpt lat="36.9638416" lon="15.0936612"><ele>495.4</ele><time>2026-03-28T10:04:13.5Z</time></trkpt><trkpt lat="36.9639294" lon="15.0938184"><ele>494.0</ele><time>2026-03-28T10:04:15.498Z</time></trkpt><trkpt lat="36.9639894" lon="15.0939161"><ele>494.0</ele><time>2026-03-28T10:04:16.5Z</time></trkpt><trkpt lat="36.9640524" lon="15.0940021"><ele>494.0</ele><time>2026-03-28T10:04:17.499Z</time></trkpt><trkpt lat="36.9641314" lon="15.0940554"><ele>494.0</ele><time>2026-03-28T10:04:18.5Z</time></trkpt><trkpt lat="36.9642244" lon="15.0940747"><ele>494.0</ele><time>2026-03-28T10:04:19.499Z</time></trkpt><trkpt lat="36.9643222" lon="15.0940577"><ele>494.0</ele><time>2026-03-28T10:04:20.499Z</time></trkpt><trkpt lat="36.964424" lon="15.0940232"><ele>492.75</ele><time>2026-03-28T10:04:21.499Z</time></trkpt><trkpt lat="36.9645308" lon="15.0940001"><ele>491.5</ele><time>2026-03-28T10:04:22.499Z</time></trkpt><trkpt lat="36.9646416" lon="15.0939927"><ele>490.25</ele><time>2026-03-28T10:04:23.499Z</time></trkpt><trkpt lat="36.964762" lon="15.0940102"><ele>489.0</ele><time>2026-03-28T10:04:24.499Z</time></trkpt><trkpt lat="36.9648947" lon="15.0940507"><ele>490.75</ele><time>2026-03-28T10:04:25.5Z</time></trkpt><trkpt lat="36.9650331" lon="15.094098"><ele>492.5</ele><time>2026-03-28T10:04:26.499Z</time></trkpt><trkpt lat="36.9651632" lon="15.0941453"><ele>494.25</ele><time>2026-03-28T10:04:27.499Z</time></trkpt><trkpt lat="36.9652961" lon="15.0941947"><ele>496.0</ele><time>2026-03-28T10:04:28.499Z</time></trkpt><trkpt lat="36.9654156" lon="15.0942377"><ele>496.0</ele><time>2026-03-28T10:04:29.499Z</time></trkpt><trkpt lat="36.9655399" lon="15.0942748"><ele>496.0</ele><time>2026-03-28T10:04:30.499Z</time></trkpt><trkpt lat="36.9656723" lon="15.0943061"><ele>496.0</ele><time>2026-03-28T10:04:31.5Z</time></trkpt><trkpt lat="36.965804" lon="15.0943322"><ele>496.0</ele><time>2026-03-28T10:04:32.499Z</time></trkpt><trkpt lat="36.9659304" lon="15.0943605"><ele>498.33333333333337</ele><time>2026-03-28T10:04:33.499Z</time></trkpt><trkpt lat="36.9660505" lon="15.0944036"><ele>500.66666666666663</ele><time>2026-03-28T10:04:34.499Z</time></trkpt><trkpt lat="36.966284" lon="15.0945168"><ele>503.0</ele><time>2026-03-28T10:04:36.499Z</time></trkpt><trkpt lat="36.966405" lon="15.0945603"><ele>503.0</ele><time>2026-03-28T10:04:37.5Z</time></trkpt><trkpt lat="36.9665282" lon="15.094588"><ele>503.0</ele><time>2026-03-28T10:04:38.498Z</time></trkpt><trkpt lat="36.9666474" lon="15.0946102"><ele>503.0</ele><time>2026-03-28T10:04:39.5Z</time></trkpt><trkpt lat="36.9667626" lon="15.0946393"><ele>503.0</ele><time>2026-03-28T10:04:40.499Z</time></trkpt><trkpt lat="36.9668664" lon="15.0946687"><ele>502.66666666666663</ele><time>2026-03-28T10:04:41.499Z</time></trkpt><trkpt lat="36.966965" lon="15.0946929"><ele>502.3333333333333</ele><time>2026-03-28T10:04:42.5Z</time></trkpt><trkpt lat="36.967053" lon="15.0947147"><ele>502.0</ele><time>2026-03-28T10:04:43.498Z</time></trkpt><trkpt lat="36.967125" lon="15.0947375"><ele>501.66666666666663</ele><time>2026-03-28T10:04:44.499Z</time></trkpt><trkpt lat="36.9672183" lon="15.0947638"><ele>501.3333333333333</ele><time>2026-03-28T10:04:46.498Z</time></trkpt><trkpt lat="36.9672831" lon="15.0947974"><ele>501.0</ele><time>2026-03-28T10:05:16.499Z</time></trkpt><trkpt lat="36.9673133" lon="15.0949843"><ele>497.4</ele><time>2026-03-28T10:05:20.499Z</time></trkpt><trkpt lat="36.9672835" lon="15.0951004"><ele>493.8</ele><time>2026-03-28T10:05:22.499Z</time></trkpt><trkpt lat="36.9672082" lon="15.0952485"><ele>490.19999999999993</ele><time>2026-03-28T10:05:24.499Z</time></trkpt><trkpt lat="36.9671591" lon="15.095343"><ele>486.59999999999997</ele><time>2026-03-28T10:05:25.499Z</time></trkpt><trkpt lat="36.9671064" lon="15.0954473"><ele>483.0</ele><time>2026-03-28T10:05:26.499Z</time></trkpt><trkpt lat="36.9670492" lon="15.0955601"><ele>483.0</ele><time>2026-03-28T10:05:27.498Z</time></trkpt><trkpt lat="36.9669951" lon="15.0956628"><ele>482.99999999999994</ele><time>2026-03-28T10:05:28.499Z</time></trkpt><trkpt lat="36.9669472" lon="15.0957548"><ele>482.99999999999994</ele><time>2026-03-28T10:05:29.499Z</time></trkpt><trkpt lat="36.9669019" lon="15.0958463"><ele>483.0</ele><time>2026-03-28T10:05:30.499Z</time></trkpt><trkpt lat="36.9668649" lon="15.0959541"><ele>483.0</ele><time>2026-03-28T10:05:31.5Z</time></trkpt><trkpt lat="36.9668431" lon="15.0960566"><ele>477.59999999999997</ele><time>2026-03-28T10:05:32.5Z</time></trkpt><trkpt lat="36.9668323" lon="15.0961614"><ele>472.19999999999993</ele><time>2026-03-28T10:05:33.5Z</time></trkpt><trkpt lat="36.9668238" lon="15.0962809"><ele>466.8</ele><time>2026-03-28T10:05:34.5Z</time></trkpt><trkpt lat="36.9668197" lon="15.0963981"><ele>461.4</ele><time>2026-03-28T10:05:35.499Z</time></trkpt><trkpt lat="36.9668145" lon="15.0965162"><ele>456.0</ele><time>2026-03-28T10:05:36.499Z</time></trkpt><trkpt lat="36.9668092" lon="15.0966223"><ele>455.6</ele><time>2026-03-28T10:05:37.5Z</time></trkpt><trkpt lat="36.9668006" lon="15.0968343"><ele>455.20000000000005</ele><time>2026-03-28T10:05:39.498Z</time></trkpt><trkpt lat="36.9667973" lon="15.0969323"><ele>454.79999999999995</ele><time>2026-03-28T10:05:40.499Z</time></trkpt><trkpt lat="36.9667949" lon="15.0970371"><ele>454.4</ele><time>2026-03-28T10:05:41.499Z</time></trkpt><trkpt lat="36.9667919" lon="15.0971432"><ele>454.0</ele><time>2026-03-28T10:05:42.5Z</time></trkpt><trkpt lat="36.9667908" lon="15.0972499"><ele>454.0</ele><time>2026-03-28T10:05:43.499Z</time></trkpt><trkpt lat="36.9667863" lon="15.0973445"><ele>454.00000000000006</ele><time>2026-03-28T10:05:44.499Z</time></trkpt><trkpt lat="36.9667826" lon="15.0974295"><ele>454.0</ele><time>2026-03-28T10:05:45.499Z</time></trkpt><trkpt lat="36.9667836" lon="15.0975219"><ele>454.0</ele><time>2026-03-28T10:05:46.499Z</time></trkpt><trkpt lat="36.9667784" lon="15.0976101"><ele>454.00000000000006</ele><time>2026-03-28T10:05:47.499Z</time></trkpt><trkpt lat="36.9667694" lon="15.0977076"><ele>454.0</ele><time>2026-03-28T10:05:48.498Z</time></trkpt><trkpt lat="36.9667572" lon="15.0978054"><ele>454.0</ele><time>2026-03-28T10:05:49.5Z</time></trkpt><trkpt lat="36.9667484" lon="15.0978971"><ele>456.2</ele><time>2026-03-28T10:05:50.499Z</time></trkpt><trkpt lat="36.9667392" lon="15.0979783"><ele>458.4</ele><time>2026-03-28T10:05:51.499Z</time></trkpt><trkpt lat="36.9667217" lon="15.098134"><ele>460.6</ele><time>2026-03-28T10:05:53.5Z</time></trkpt><trkpt lat="36.9667011" lon="15.0982705"><ele>462.8</ele><time>2026-03-28T10:05:55.498Z</time></trkpt><trkpt lat="36.9666786" lon="15.0983932"><ele>465.0</ele><time>2026-03-28T10:05:57.499Z</time></trkpt><trkpt lat="36.9666609" lon="15.0985026"><ele>472.0</ele><time>2026-03-28T10:05:59.499Z</time></trkpt><trkpt lat="36.9666224" lon="15.0987684"><ele>479.0</ele><time>2026-03-28T10:06:03.499Z</time></trkpt><trkpt lat="36.9666061" lon="15.0988551"><ele>486.0</ele><time>2026-03-28T10:06:04.5Z</time></trkpt><trkpt lat="36.966589" lon="15.0989658"><ele>493.0</ele><time>2026-03-28T10:06:05.499Z</time></trkpt><trkpt lat="36.9665654" lon="15.0990983"><ele>493.4</ele><time>2026-03-28T10:06:06.499Z</time></trkpt><trkpt lat="36.9665416" lon="15.0992388"><ele>493.79999999999995</ele><time>2026-03-28T10:06:07.499Z</time></trkpt><trkpt lat="36.9665208" lon="15.0993771"><ele>494.2</ele><time>2026-03-28T10:06:08.5Z</time></trkpt><trkpt lat="36.9665029" lon="15.0994987"><ele>494.6</ele><time>2026-03-28T10:06:09.5Z</time></trkpt><trkpt lat="36.9664826" lon="15.0996189"><ele>495.0</ele><time>2026-03-28T10:06:10.498Z</time></trkpt><trkpt lat="36.9664664" lon="15.0997305"><ele>495.0</ele><time>2026-03-28T10:06:11.499Z</time></trkpt><trkpt lat="36.9664518" lon="15.0998352"><ele>495.0</ele><time>2026-03-28T10:06:12.498Z</time></trkpt><trkpt lat="36.9664301" lon="15.0999411"><ele>495.0</ele><time>2026-03-28T10:06:13.499Z</time></trkpt><trkpt lat="36.9664004" lon="15.1000549"><ele>495.0</ele><time>2026-03-28T10:06:14.499Z</time></trkpt><trkpt lat="36.966365" lon="15.1001787"><ele>495.0</ele><time>2026-03-28T10:06:15.499Z</time></trkpt><trkpt lat="36.9663221" lon="15.1003023"><ele>496.2</ele><time>2026-03-28T10:06:16.5Z</time></trkpt><trkpt lat="36.9662749" lon="15.1004299"><ele>497.4</ele><time>2026-03-28T10:06:17.499Z</time></trkpt><trkpt lat="36.9662306" lon="15.1005484"><ele>498.6</ele><time>2026-03-28T10:06:18.498Z</time></trkpt><trkpt lat="36.9661815" lon="15.1006669"><ele>499.8</ele><time>2026-03-28T10:06:19.5Z</time></trkpt><trkpt lat="36.9661332" lon="15.1007714"><ele>501.0</ele><time>2026-03-28T10:06:20.499Z</time></trkpt><trkpt lat="36.9660115" lon="15.1009694"><ele>501.4</ele><time>2026-03-28T10:06:22.499Z</time></trkpt><trkpt lat="36.9659281" lon="15.1010681"><ele>501.8</ele><time>2026-03-28T10:06:23.498Z</time></trkpt><trkpt lat="36.9658475" lon="15.1011555"><ele>502.19999999999993</ele><time>2026-03-28T10:06:24.5Z</time></trkpt><trkpt lat="36.9657682" lon="15.1012356"><ele>502.59999999999997</ele><time>2026-03-28T10:06:25.498Z</time></trkpt><trkpt lat="36.9656968" lon="15.1013159"><ele>503.0</ele><time>2026-03-28T10:06:26.5Z</time></trkpt><trkpt lat="36.9656287" lon="15.1013903"><ele>502.99999999999994</ele><time>2026-03-28T10:06:27.498Z</time></trkpt><trkpt lat="36.9655595" lon="15.101469"><ele>503.0</ele><time>2026-03-28T10:06:28.499Z</time></trkpt><trkpt lat="36.9654978" lon="15.1015411"><ele>503.0</ele><time>2026-03-28T10:06:29.499Z</time></trkpt><trkpt lat="36.9654393" lon="15.1016144"><ele>503.0</ele><time>2026-03-28T10:06:30.5Z</time></trkpt><trkpt lat="36.965384" lon="15.101685"><ele>502.99999999999994</ele><time>2026-03-28T10:06:31.499Z</time></trkpt><trkpt lat="36.9653287" lon="15.1017556"><ele>503.0</ele><time>2026-03-28T10:06:32.499Z</time></trkpt><trkpt lat="36.9652769" lon="15.1018246"><ele>503.14285714285717</ele><time>2026-03-28T10:06:33.499Z</time></trkpt><trkpt lat="36.9652269" lon="15.101892"><ele>503.28571428571433</ele><time>2026-03-28T10:06:34.5Z</time></trkpt><trkpt lat="36.9651759" lon="15.1019563"><ele>503.42857142857144</ele><time>2026-03-28T10:06:35.499Z</time></trkpt><trkpt lat="36.965131" lon="15.1020202"><ele>503.57142857142856</ele><time>2026-03-28T10:06:36.499Z</time></trkpt><trkpt lat="36.9650817" lon="15.1020889"><ele>503.7142857142857</ele><time>2026-03-28T10:06:37.5Z</time></trkpt><trkpt lat="36.9650371" lon="15.102155"><ele>503.8571428571429</ele><time>2026-03-28T10:06:38.499Z</time></trkpt><trkpt lat="36.964993" lon="15.1022152"><ele>504.0</ele><time>2026-03-28T10:06:39.498Z</time></trkpt><trkpt lat="36.9649485" lon="15.1022719"><ele>502.4</ele><time>2026-03-28T10:06:40.499Z</time></trkpt><trkpt lat="36.9648598" lon="15.1024025"><ele>500.79999999999995</ele><time>2026-03-28T10:06:42.499Z</time></trkpt><trkpt lat="36.9647736" lon="15.1025647"><ele>499.20000000000005</ele><time>2026-03-28T10:06:44.499Z</time></trkpt><trkpt lat="36.9647318" lon="15.1026507"><ele>497.6</ele><time>2026-03-28T10:06:45.498Z</time></trkpt><trkpt lat="36.9646948" lon="15.1027272"><ele>496.0</ele><time>2026-03-28T10:06:46.499Z</time></trkpt><trkpt lat="36.9646509" lon="15.1027918"><ele>495.83333333333337</ele><time>2026-03-28T10:06:47.498Z</time></trkpt><trkpt lat="36.9646161" lon="15.1028641"><ele>495.6666666666667</ele><time>2026-03-28T10:06:48.499Z</time></trkpt><trkpt lat="36.9645812" lon="15.1029363"><ele>495.5</ele><time>2026-03-28T10:06:49.499Z</time></trkpt><trkpt lat="36.9645529" lon="15.1030272"><ele>495.33333333333337</ele><time>2026-03-28T10:06:50.499Z</time></trkpt><trkpt lat="36.964542" lon="15.1031109"><ele>495.1666666666667</ele><time>2026-03-28T10:06:51.498Z</time></trkpt><trkpt lat="36.9645363" lon="15.1031897"><ele>495.0</ele><time>2026-03-28T10:06:52.499Z</time></trkpt><trkpt lat="36.9645269" lon="15.1033234"><ele>493.0</ele><time>2026-03-28T10:06:54.498Z</time></trkpt><trkpt lat="36.9645171" lon="15.1034317"><ele>493.0</ele><time>2026-03-28T10:06:56.498Z</time></trkpt><trkpt lat="36.9645124" lon="15.1035265"><ele>493.0</ele><time>2026-03-28T10:06:59.499Z</time></trkpt><trkpt lat="36.9645014" lon="15.1036134"><ele>493.0</ele><time>2026-03-28T10:07:03.5Z</time></trkpt></trkseg></trk></gpx>